createdAt,value
2018-12-17T00:02:03.374Z,27.83
2018-12-17T00:04:32.849Z,27.60
2018-12-17T00:07:01.622Z,27.67
2018-12-17T00:09:30.431Z,28.97
2018-12-17T00:11:59.300Z,27.00
2018-12-17T00:14:28.075Z,26.50
2018-12-17T00:16:57.072Z,26.10
2018-12-17T00:19:25.698Z,25.73
2018-12-17T00:21:54.555Z,25.57
2018-12-17T00:24:23.369Z,25.13
2018-12-17T00:26:51.978Z,25.93
2018-12-17T00:29:20.767Z,24.87
2018-12-17T00:31:49.367Z,25.80
2018-12-17T00:34:18.059Z,26.03
2018-12-17T00:36:46.694Z,24.57
2018-12-17T00:39:15.363Z,26.03
2018-12-17T00:41:44.016Z,23.83
2018-12-17T00:44:12.729Z,22.23
2018-12-17T00:46:41.406Z,24.13
2018-12-17T00:49:10.106Z,23.10
2018-12-17T00:51:38.730Z,23.07
2018-12-17T00:54:07.478Z,22.73
2018-12-17T00:56:36.509Z,22.63
2018-12-17T00:59:05.192Z,23.03
2018-12-17T01:01:34.063Z,22.97
2018-12-17T01:04:02.725Z,23.07
2018-12-17T01:06:31.496Z,23.87
2018-12-17T01:09:00.062Z,23.63
2018-12-17T01:11:31.047Z,22.30
2018-12-17T01:14:02.154Z,21.83
2018-12-17T01:16:31.744Z,22.47
2018-12-17T01:19:01.890Z,21.40
2018-12-17T01:21:31.131Z,22.43
2018-12-17T01:24:00.684Z,21.77
2018-12-17T01:26:30.864Z,21.80
2018-12-17T01:28:59.526Z,21.30
2018-12-17T01:31:28.541Z,22.07
2018-12-17T01:33:57.229Z,21.27
2018-12-17T01:36:28.269Z,22.27
2018-12-17T01:38:59.185Z,23.10
2018-12-17T01:41:29.291Z,21.07
2018-12-17T01:43:59.122Z,20.30
2018-12-17T01:46:28.327Z,19.73
2018-12-17T01:48:57.600Z,22.20
2018-12-17T01:51:28.789Z,21.27
2018-12-17T01:53:58.081Z,20.90
2018-12-17T01:56:29.003Z,21.57
2018-12-17T01:59:01.663Z,19.73
2018-12-17T02:01:32.143Z,20.30
2018-12-17T02:24:09.003Z,22.20
2018-12-17T02:26:38.482Z,21.67
2018-12-17T02:29:07.858Z,22.07
2018-12-17T02:31:39.967Z,21.00
2018-12-17T02:34:08.586Z,20.00
2018-12-17T02:36:37.241Z,20.13
2018-12-17T02:39:07.997Z,19.27
2018-12-17T02:41:36.499Z,20.57
2018-12-17T02:44:05.448Z,22.70
2018-12-17T02:46:34.056Z,21.33
2018-12-17T02:49:02.594Z,19.87
2018-12-17T02:51:31.245Z,20.87
2018-12-17T02:53:59.983Z,19.30
2018-12-17T02:56:28.621Z,19.83
2018-12-17T02:58:57.283Z,22.27
2018-12-17T03:01:25.851Z,21.30
2018-12-17T03:03:54.411Z,21.50
2018-12-17T03:06:23.147Z,21.53
2018-12-17T03:08:51.690Z,19.83
2018-12-17T03:11:20.380Z,20.00
2018-12-17T03:13:48.927Z,19.37
2018-12-17T03:16:17.471Z,20.60
2018-12-17T03:18:45.997Z,19.37
2018-12-17T03:21:14.499Z,19.80
2018-12-17T03:23:43.105Z,21.53
2018-12-17T03:26:11.784Z,19.83
2018-12-17T03:28:40.378Z,19.27
2018-12-17T03:31:09.011Z,20.10
2018-12-17T03:33:37.600Z,19.97
2018-12-17T03:36:06.219Z,21.10
2018-12-17T03:38:37.834Z,20.13
2018-12-17T03:41:06.541Z,20.60
2018-12-17T03:43:35.120Z,21.07
2018-12-17T03:46:03.766Z,20.60
2018-12-17T03:48:32.393Z,20.80
2018-12-17T03:51:00.977Z,19.57
2018-12-17T03:53:29.574Z,19.77
2018-12-17T03:55:58.108Z,19.63
2018-12-17T03:58:26.806Z,19.77
2018-12-17T04:00:55.366Z,20.10
2018-12-17T04:03:24.057Z,22.63
2018-12-17T04:05:52.646Z,21.70
2018-12-17T04:08:21.306Z,19.80
2018-12-17T04:10:49.828Z,20.47
2018-12-17T04:13:18.427Z,19.80
2018-12-17T04:15:46.987Z,19.90
2018-12-17T04:18:15.529Z,19.07
2018-12-17T04:20:44.100Z,20.37
2018-12-17T04:23:12.904Z,22.03
2018-12-17T04:25:41.414Z,21.67
2018-12-17T04:28:11.040Z,23.50
2018-12-17T04:30:39.716Z,23.27
2018-12-17T04:33:08.270Z,26.17
2018-12-17T04:35:36.830Z,25.13
2018-12-17T04:38:05.456Z,26.27
2018-12-17T04:40:34.052Z,25.00
2018-12-17T04:43:02.591Z,24.10
2018-12-17T04:45:31.238Z,30.63
2018-12-17T04:47:59.836Z,25.40
2018-12-17T04:50:28.468Z,27.80
2018-12-17T04:52:56.984Z,25.73
2018-12-17T04:55:25.550Z,28.13
2018-12-17T04:57:54.575Z,26.40
2018-12-17T05:00:23.302Z,27.57
2018-12-17T05:02:51.861Z,26.57
2018-12-17T05:05:20.631Z,28.40
2018-12-17T05:07:49.226Z,27.63
2018-12-17T05:10:24.410Z,28.17
2018-12-17T05:12:52.997Z,26.50
2018-12-17T05:15:21.627Z,25.27
2018-12-17T05:17:50.251Z,25.30
2018-12-17T05:20:18.830Z,25.47
2018-12-17T05:22:47.452Z,25.47
2018-12-17T05:25:16.094Z,28.70
2018-12-17T05:27:44.660Z,25.87
2018-12-17T05:30:13.215Z,27.73
2018-12-17T05:32:41.855Z,25.67
2018-12-17T05:35:10.490Z,28.13
2018-12-17T05:37:39.022Z,27.60
2018-12-17T05:40:07.775Z,25.67
2018-12-17T05:42:36.338Z,27.67
2018-12-17T05:45:05.504Z,27.80
2018-12-17T05:47:34.200Z,28.23
2018-12-17T05:50:02.751Z,27.50
2018-12-17T05:52:31.279Z,28.13
2018-12-17T05:54:59.911Z,27.93
2018-12-17T05:57:28.451Z,28.83
2018-12-17T05:59:57.010Z,25.17
2018-12-17T06:02:25.550Z,28.27
2018-12-17T06:04:54.101Z,26.57
2018-12-17T06:07:22.646Z,26.67
2018-12-17T06:09:51.177Z,28.70
2018-12-17T06:12:19.740Z,30.47
2018-12-17T06:14:48.258Z,28.37
2018-12-17T06:17:16.847Z,29.63
2018-12-17T06:19:45.552Z,29.40
2018-12-17T06:22:14.150Z,28.60
2018-12-17T06:24:42.731Z,28.63
2018-12-17T06:27:11.318Z,30.57
2018-12-17T06:29:39.890Z,28.97
2018-12-17T06:32:08.430Z,29.00
2018-12-17T06:34:37.013Z,30.87
2018-12-17T06:37:05.588Z,28.40
2018-12-17T06:39:34.156Z,28.10
2018-12-17T06:42:02.686Z,27.00
2018-12-17T06:44:32.006Z,27.27
2018-12-17T06:47:00.547Z,28.17
2018-12-17T06:49:29.150Z,26.70
2018-12-17T06:51:58.112Z,27.67
2018-12-17T06:54:26.885Z,25.80
2018-12-17T06:56:55.465Z,26.13
2018-12-17T06:59:24.007Z,27.00
2018-12-17T07:01:52.976Z,27.73
2018-12-17T07:04:21.533Z,25.07
2018-12-17T07:06:50.088Z,24.77
2018-12-17T07:09:18.711Z,32.15
2018-12-17T07:11:47.278Z,27.60
2018-12-17T07:14:15.977Z,36.23
2018-12-17T07:16:44.526Z,28.03
2018-12-17T07:19:13.408Z,27.33
2018-12-17T07:21:42.165Z,28.33
2018-12-17T07:24:10.815Z,27.43
2018-12-17T07:26:39.363Z,25.67
2018-12-17T07:29:07.885Z,26.20
2018-12-17T07:31:36.407Z,27.10
2018-12-17T07:34:04.983Z,26.97
2018-12-17T07:36:33.616Z,27.60
2018-12-17T07:39:02.622Z,28.10
2018-12-17T07:41:31.218Z,27.37
2018-12-17T07:43:59.977Z,36.20
2018-12-17T07:46:28.514Z,29.97
2018-12-17T07:48:57.034Z,27.63
2018-12-17T07:51:25.675Z,28.67
2018-12-17T07:53:54.242Z,29.37
2018-12-17T07:56:22.763Z,27.53
2018-12-17T07:58:51.670Z,27.80
2018-12-17T08:01:20.264Z,27.03
2018-12-17T08:03:49.138Z,29.03
2018-12-17T08:06:18.174Z,35.80
2018-12-17T08:08:46.783Z,29.70
2018-12-17T08:11:15.348Z,27.63
2018-12-17T08:13:43.975Z,27.00
2018-12-17T08:16:12.594Z,28.17
2018-12-17T08:18:41.340Z,25.80
2018-12-17T08:21:10.988Z,26.15
2018-12-17T08:23:39.567Z,29.32
2018-12-17T08:26:08.220Z,27.30
2018-12-17T08:28:36.945Z,27.43
2018-12-17T08:31:05.665Z,28.07
2018-12-17T08:33:34.427Z,27.73
2018-12-17T08:36:03.189Z,27.70
2018-12-17T08:38:31.947Z,28.27
2018-12-17T08:41:00.627Z,35.33
2018-12-17T08:43:29.185Z,28.40
2018-12-17T08:45:57.778Z,27.37
2018-12-17T08:48:26.407Z,29.73
2018-12-17T08:50:55.113Z,27.40
2018-12-17T08:53:23.794Z,27.37
2018-12-17T08:55:52.545Z,27.47
2018-12-17T08:58:21.342Z,28.77
2018-12-17T09:00:49.991Z,26.17
2018-12-17T09:03:18.957Z,26.67
2018-12-17T09:05:47.848Z,27.57
2018-12-17T09:08:16.426Z,27.23
2018-12-17T09:10:46.236Z,26.47
2018-12-17T09:13:14.786Z,27.40
2018-12-17T09:15:43.440Z,24.50
2018-12-17T09:18:12.012Z,24.87
2018-12-17T09:20:40.671Z,25.33
2018-12-17T09:23:09.242Z,25.97
2018-12-17T09:25:38.301Z,26.73
2018-12-17T09:28:06.840Z,24.87
2018-12-17T09:30:41.266Z,26.13
2018-12-17T09:33:06.013Z,25.33
2018-12-17T09:35:34.620Z,25.63
2018-12-17T09:38:03.197Z,26.43
2018-12-17T09:40:32.322Z,26.53
2018-12-17T09:43:01.052Z,26.40
2018-12-17T09:45:29.669Z,28.57
2018-12-17T09:47:58.296Z,25.27
2018-12-17T09:50:26.971Z,27.03
2018-12-17T09:52:55.561Z,26.87
2018-12-17T09:55:24.123Z,25.53
2018-12-17T09:57:52.726Z,26.93
2018-12-17T10:00:25.338Z,25.03
2018-12-17T10:02:51.828Z,25.53
2018-12-17T10:05:20.472Z,24.17
2018-12-17T10:07:49.003Z,23.27
2018-12-17T10:10:17.659Z,23.47
2018-12-17T10:12:46.595Z,23.23
2018-12-17T10:15:15.646Z,21.47
2018-12-17T10:17:44.410Z,21.33
2018-12-17T10:20:12.973Z,23.50
2018-12-17T10:22:43.377Z,22.43
2018-12-17T10:25:12.171Z,22.13
2018-12-17T10:27:40.780Z,22.07
2018-12-17T10:30:09.595Z,19.07
2018-12-17T10:32:38.174Z,18.43
2018-12-17T10:35:06.856Z,18.47
2018-12-17T10:37:35.700Z,18.20
2018-12-17T10:40:05.099Z,20.27
2018-12-17T10:42:33.822Z,21.73
2018-12-17T10:45:02.465Z,19.83
2018-12-17T10:47:31.115Z,19.03
2018-12-17T10:49:59.812Z,20.63
2018-12-17T10:52:28.545Z,20.67
2018-12-17T10:54:57.186Z,20.13
2018-12-17T10:57:26.050Z,20.23
2018-12-17T10:59:54.858Z,20.00
2018-12-17T11:02:28.529Z,20.43
2018-12-17T11:05:02.444Z,21.27
2018-12-17T11:07:31.054Z,20.87
2018-12-17T11:09:59.763Z,19.77
2018-12-17T11:12:28.391Z,19.50
2018-12-17T11:14:56.881Z,21.53
2018-12-17T11:17:25.437Z,20.97
2018-12-17T11:19:54.023Z,20.73
2018-12-17T11:22:22.725Z,20.33
2018-12-17T11:24:51.279Z,19.80
2018-12-17T11:27:20.059Z,19.93
2018-12-17T11:29:48.915Z,18.30
2018-12-17T11:32:17.593Z,18.53
2018-12-17T11:34:46.209Z,18.50
2018-12-17T11:37:15.150Z,19.73
2018-12-17T11:39:43.816Z,18.30
2018-12-17T11:42:12.419Z,16.93
2018-12-17T11:44:40.969Z,17.20
2018-12-17T11:47:09.537Z,17.57
2018-12-17T11:49:38.193Z,17.23
2018-12-17T11:52:07.088Z,16.50
2018-12-17T11:54:35.701Z,18.20
2018-12-17T11:57:54.934Z,17.40
2018-12-17T12:00:25.699Z,16.87
2018-12-17T12:02:59.144Z,18.57
2018-12-17T12:05:25.177Z,18.10
2018-12-17T12:07:53.746Z,18.83
2018-12-17T12:10:22.335Z,18.80
2018-12-17T12:12:50.888Z,20.00
2018-12-17T12:15:19.412Z,18.00
2018-12-17T12:17:48.192Z,19.03
2018-12-17T12:20:16.790Z,18.17
2018-12-17T12:22:45.411Z,18.83
2018-12-17T12:25:14.401Z,18.90
2018-12-17T12:27:43.068Z,18.97
2018-12-17T12:30:12.032Z,18.73
2018-12-17T12:32:40.818Z,18.60
2018-12-17T12:35:11.433Z,19.53
2018-12-17T12:37:40.497Z,19.13
2018-12-17T12:40:09.572Z,17.57
2018-12-17T12:42:38.105Z,18.63
2018-12-17T12:45:07.638Z,18.50
2018-12-17T12:47:36.615Z,19.83
2018-12-17T12:50:06.635Z,18.67
2018-12-17T12:52:35.218Z,20.53
2018-12-17T12:55:03.985Z,19.70
2018-12-17T12:57:32.486Z,19.83
2018-12-17T13:00:01.046Z,25.30
2018-12-17T13:02:29.644Z,21.20
2018-12-17T13:04:58.275Z,20.60
2018-12-17T13:07:26.820Z,20.50
2018-12-17T13:09:55.341Z,20.33
2018-12-17T13:12:23.880Z,20.77
2018-12-17T13:14:52.506Z,20.87
2018-12-17T13:17:26.523Z,20.63
2018-12-17T13:19:55.126Z,20.67
2018-12-17T13:22:23.918Z,21.97
2018-12-17T13:24:52.431Z,21.63
2018-12-17T13:27:21.064Z,20.83
2018-12-17T13:29:49.629Z,21.47
2018-12-17T13:32:18.175Z,22.10
2018-12-17T13:34:46.920Z,21.13
2018-12-17T13:37:15.583Z,21.23
2018-12-17T13:39:44.103Z,20.80
2018-12-17T13:42:12.757Z,21.87
2018-12-17T13:44:41.436Z,20.00
2018-12-17T13:47:10.063Z,19.83
2018-12-17T13:49:38.612Z,21.80
2018-12-17T13:52:12.429Z,19.07
2018-12-17T13:54:40.975Z,20.30
2018-12-17T13:57:09.618Z,20.00
2018-12-17T13:59:38.254Z,22.30
2018-12-17T14:02:06.855Z,20.97
2018-12-17T14:04:35.438Z,20.40
2018-12-17T14:07:05.085Z,19.93
2018-12-17T14:09:37.906Z,19.90
2018-12-17T14:12:06.423Z,24.00
2018-12-17T14:14:35.011Z,25.27
2018-12-17T14:17:09.121Z,20.47
2018-12-17T14:19:40.031Z,20.13
2018-12-17T14:22:08.615Z,19.97
2018-12-17T14:24:37.674Z,20.47
2018-12-17T14:27:06.404Z,20.87
2018-12-17T14:29:34.967Z,20.43
2018-12-17T14:32:05.188Z,19.73
2018-12-17T14:34:33.960Z,18.97
2018-12-17T14:37:28.319Z,18.77
2018-12-17T14:40:16.346Z,18.30
2018-12-17T14:43:03.165Z,17.30
2018-12-17T14:45:42.967Z,17.17
2018-12-17T14:48:18.650Z,22.85
2018-12-17T14:50:48.306Z,17.90
2018-12-17T14:53:17.213Z,18.13
2018-12-17T14:55:46.642Z,18.13
2018-12-17T14:58:15.674Z,17.27
2018-12-17T15:00:44.509Z,17.97
2018-12-17T15:03:13.226Z,18.20
2018-12-17T15:05:41.992Z,16.87
2018-12-17T15:08:10.943Z,17.13
2018-12-17T15:10:39.776Z,17.27
2018-12-17T15:13:08.478Z,17.10
2018-12-17T15:15:37.226Z,15.73
2018-12-17T15:18:06.074Z,16.20
2018-12-17T15:20:34.996Z,15.50
2018-12-17T15:23:03.645Z,16.03
2018-12-17T15:25:32.366Z,16.93
2018-12-17T15:28:00.990Z,17.13
2018-12-17T15:30:29.789Z,17.03
2018-12-17T15:33:14.328Z,15.67
2018-12-17T15:35:43.147Z,17.17
2018-12-17T15:38:11.787Z,17.13
2018-12-17T15:40:40.515Z,16.67
2018-12-17T15:43:09.311Z,16.07
2018-12-17T15:45:38.264Z,16.97
2018-12-17T15:48:06.896Z,15.97
2018-12-17T15:50:35.528Z,16.50
2018-12-17T15:53:04.251Z,15.93
2018-12-17T15:55:32.926Z,16.87
2018-12-17T15:58:01.691Z,16.67
2018-12-17T16:00:30.316Z,17.97
2018-12-17T16:02:58.999Z,16.70
2018-12-17T16:05:27.902Z,17.60
2018-12-17T16:07:58.324Z,17.73
2018-12-17T16:10:27.458Z,15.87
2018-12-17T16:12:56.117Z,15.20
2018-12-17T16:15:25.382Z,16.40
2018-12-17T16:17:54.095Z,16.13
2018-12-17T16:20:22.739Z,16.03
2018-12-17T16:22:51.327Z,15.90
2018-12-17T16:25:20.140Z,18.92
2018-12-17T16:27:49.042Z,17.70
2018-12-17T16:30:20.665Z,16.83
2018-12-17T16:32:51.580Z,17.43
2018-12-17T16:35:20.354Z,15.63
2018-12-17T16:37:49.386Z,16.00
2018-12-17T16:40:18.321Z,15.60
2018-12-17T16:42:47.347Z,15.83
2018-12-17T16:45:16.163Z,16.07
2018-12-17T16:47:44.784Z,19.57
2018-12-17T16:50:13.473Z,19.48
2018-12-17T16:52:42.111Z,16.30
2018-12-17T16:55:10.731Z,16.50
2018-12-17T16:57:39.303Z,15.07
2018-12-17T17:00:10.047Z,14.77
2018-12-17T17:02:39.048Z,14.87
2018-12-17T17:05:08.577Z,15.40
2018-12-17T17:07:37.922Z,14.73
2018-12-17T17:10:09.212Z,13.90
2018-12-17T17:12:38.087Z,15.17
2018-12-17T17:15:10.214Z,14.07
2018-12-17T17:17:39.813Z,15.03
2018-12-17T17:20:09.807Z,15.40
2018-12-17T17:22:39.442Z,14.47
2018-12-17T17:25:08.870Z,14.00
2018-12-17T17:27:38.348Z,15.40
2018-12-17T17:30:08.621Z,15.83
2018-12-17T17:32:37.584Z,15.60
2018-12-17T17:35:06.730Z,14.83
2018-12-17T17:37:35.546Z,15.23
2018-12-17T17:40:05.343Z,18.27
2018-12-17T17:42:33.974Z,15.90
2018-12-17T17:45:02.766Z,16.07
2018-12-17T17:47:31.567Z,16.20
2018-12-17T17:50:00.548Z,17.57
2018-12-17T17:52:30.291Z,16.27
2018-12-17T17:55:03.057Z,16.27
2018-12-17T17:57:31.940Z,16.77
2018-12-17T18:00:00.621Z,21.50
2018-12-17T18:02:30.481Z,17.87
2018-12-17T18:04:59.219Z,17.10
2018-12-17T18:07:28.016Z,17.53
2018-12-17T18:09:56.770Z,17.07
2018-12-17T18:12:25.343Z,17.67
2018-12-17T18:14:53.963Z,16.70
2018-12-17T18:17:22.586Z,17.43
2018-12-17T18:19:51.694Z,16.40
2018-12-17T18:22:20.310Z,16.53
2018-12-17T18:24:48.972Z,16.37
2018-12-17T18:27:17.840Z,16.90
2018-12-17T18:29:46.922Z,16.30
2018-12-17T18:32:16.330Z,15.40
2018-12-17T18:34:44.992Z,15.13
2018-12-17T18:37:13.574Z,15.40
2018-12-17T18:39:42.452Z,14.60
2018-12-17T18:42:11.130Z,15.20
2018-12-17T18:44:40.436Z,14.90
2018-12-17T18:47:09.351Z,15.50
2018-12-17T18:49:37.994Z,15.67
2018-12-17T18:52:06.785Z,15.63
2018-12-17T18:54:35.473Z,15.33
2018-12-17T18:57:04.236Z,18.37
2018-12-17T18:59:32.913Z,16.13
2018-12-17T19:02:01.643Z,16.10
2018-12-17T19:04:30.391Z,15.60
2018-12-17T19:06:59.049Z,15.60
2018-12-17T19:09:27.673Z,16.33
2018-12-17T19:11:56.564Z,15.33
2018-12-17T19:14:25.260Z,15.63
2018-12-17T19:16:55.161Z,16.23
2018-12-17T19:19:23.981Z,15.17
2018-12-17T19:21:54.747Z,15.17
2018-12-17T19:24:23.356Z,15.37
2018-12-17T19:26:56.369Z,14.53
2018-12-17T19:29:24.980Z,15.80
2018-12-17T19:31:56.258Z,16.37
2018-12-17T19:34:31.378Z,14.93
2018-12-17T19:37:02.266Z,15.10
2018-12-17T19:39:32.874Z,16.23
2018-12-17T19:42:02.362Z,16.70
2018-12-17T19:44:32.808Z,15.17
2018-12-17T19:47:01.591Z,16.33
2018-12-17T19:49:30.434Z,15.47
2018-12-17T19:52:00.653Z,15.00
2018-12-17T19:54:29.698Z,14.87
2018-12-17T19:56:59.065Z,14.83
2018-12-17T19:59:28.109Z,14.70
2018-12-17T20:01:57.023Z,14.33
2018-12-17T20:04:25.729Z,15.60
2018-12-17T20:06:54.874Z,19.35
2018-12-17T20:09:23.540Z,15.70
2018-12-17T20:11:52.252Z,15.40
2018-12-17T20:14:20.999Z,14.40
2018-12-17T20:16:49.835Z,14.73
2018-12-17T20:19:24.043Z,13.33
2018-12-17T20:21:53.209Z,13.00
2018-12-17T20:24:21.969Z,12.53
2018-12-17T20:26:50.635Z,12.27
2018-12-17T20:29:26.258Z,13.43
2018-12-17T20:31:55.247Z,12.80
2018-12-17T20:34:23.949Z,14.23
2018-12-17T20:36:52.555Z,17.90
2018-12-17T20:39:26.221Z,14.40
2018-12-17T20:41:54.959Z,14.30
2018-12-17T20:44:23.525Z,13.97
2018-12-17T20:46:52.179Z,14.07
2018-12-17T20:49:20.737Z,15.23
2018-12-17T20:51:49.539Z,16.03
2018-12-17T20:54:18.167Z,17.07
2018-12-17T20:56:46.734Z,17.33
2018-12-17T20:59:15.396Z,17.23
2018-12-17T21:01:43.923Z,17.50
2018-12-17T21:04:12.467Z,17.77
2018-12-17T21:06:41.023Z,16.73
2018-12-17T21:09:09.632Z,16.67
2018-12-17T21:11:38.203Z,16.03
2018-12-17T21:14:06.749Z,17.13
2018-12-17T21:16:35.313Z,16.80
2018-12-17T21:19:03.943Z,16.50
2018-12-17T21:21:32.510Z,17.50
2018-12-17T21:24:01.194Z,16.00
2018-12-17T21:26:29.734Z,16.47
2018-12-17T21:28:58.351Z,18.07
2018-12-17T21:31:26.887Z,17.00
2018-12-17T21:33:55.401Z,16.77
2018-12-17T21:36:23.890Z,15.50
2018-12-17T21:38:52.439Z,14.20
2018-12-17T21:41:21.026Z,13.43
2018-12-17T21:43:49.635Z,14.63
2018-12-17T21:46:19.343Z,13.70
2018-12-17T21:48:48.035Z,14.53
2018-12-17T21:51:16.733Z,13.80
2018-12-17T21:53:45.283Z,16.17
2018-12-17T21:56:14.007Z,15.20
2018-12-17T21:58:42.534Z,15.83
2018-12-17T22:01:11.095Z,15.57
2018-12-17T22:03:39.674Z,16.23
2018-12-17T22:06:08.446Z,15.73
2018-12-17T22:08:36.982Z,16.10
2018-12-17T22:11:05.667Z,16.53
2018-12-17T22:13:34.288Z,14.07
2018-12-17T22:16:02.784Z,15.93
2018-12-17T22:18:31.312Z,15.20
2018-12-17T22:20:59.864Z,15.53
2018-12-17T22:23:28.444Z,14.33
2018-12-17T22:25:57.042Z,14.40
2018-12-17T22:28:25.558Z,14.37
2018-12-17T22:30:54.079Z,15.00
2018-12-17T22:33:22.695Z,14.93
2018-12-17T22:35:51.272Z,15.77
2018-12-17T22:38:19.763Z,14.40
2018-12-17T22:40:48.306Z,14.50
2018-12-17T22:43:16.981Z,14.30
2018-12-17T22:45:45.469Z,15.20
2018-12-17T22:48:14.068Z,13.83
2018-12-17T22:50:42.632Z,14.93
2018-12-17T22:53:11.173Z,15.00
2018-12-17T22:55:39.717Z,15.10
2018-12-17T22:58:08.262Z,14.60
2018-12-17T23:00:36.970Z,14.93
2018-12-17T23:03:05.674Z,15.13
2018-12-17T23:05:34.491Z,15.20
2018-12-17T23:08:03.042Z,15.27
2018-12-17T23:10:45.341Z,16.80
2018-12-17T23:13:25.051Z,15.43
2018-12-17T23:16:04.837Z,15.07
2018-12-17T23:18:32.311Z,15.67
2018-12-17T23:21:01.081Z,14.77
2018-12-17T23:23:29.602Z,14.50
2018-12-17T23:25:58.165Z,16.00
2018-12-17T23:28:26.731Z,15.97
2018-12-17T23:30:55.376Z,16.70
2018-12-17T23:33:23.925Z,15.07
2018-12-17T23:35:52.457Z,16.27
2018-12-17T23:38:21.041Z,15.57
2018-12-17T23:40:49.667Z,15.37
2018-12-17T23:43:18.317Z,14.17
2018-12-17T23:45:46.972Z,14.43
2018-12-17T23:48:15.510Z,14.37
2018-12-17T23:50:44.371Z,13.00
2018-12-17T23:53:12.978Z,13.30
2018-12-17T23:55:41.508Z,12.87
2018-12-17T23:58:10.070Z,12.23
